sensor_id;sensor_type;location;lat;lon;timestamp;temperature;humidity
12223;DHT22;6174;49.058;8.524;2024-03-02T07:24:05;5.00;99.90
12223;DHT22;6174;49.058;8.524;2024-03-02T07:26:40;5.00;99.90
12223;DHT22;6174;49.058;8.524;2024-03-02T12:01:10;16.00;93.50
12223;DHT22;6174;49.058;8.524;2024-03-02T12:03:38;16.10;92.10
12223;DHT22;6174;49.058;8.524;2024-03-02T12:06:06;15.90;93.00
12223;DHT22;6174;49.058;8.524;2024-03-02T12:08:34;16.10;92.80
12223;DHT22;6174;49.058;8.524;2024-03-02T12:11:03;16.20;92.00
12223;DHT22;6174;49.058;8.524;2024-03-02T12:13:32;16.30;92.10
12223;DHT22;6174;49.058;8.524;2024-03-02T12:16:02;16.40;91.60
12223;DHT22;6174;49.058;8.524;2024-03-02T12:18:31;16.30;91.30
12223;DHT22;6174;49.058;8.524;2024-03-02T12:21:02;16.40;90.70
12223;DHT22;6174;49.058;8.524;2024-03-02T12:23:34;16.40;91.00
12223;DHT22;6174;49.058;8.524;2024-03-02T12:26:20;16.50;91.50
12223;DHT22;6174;49.058;8.524;2024-03-02T12:29:10;16.60;90.40
12223;DHT22;6174;49.058;8.524;2024-03-02T12:31:39;16.60;90.70
12223;DHT22;6174;49.058;8.524;2024-03-02T12:34:08;16.70;91.50
12223;DHT22;6174;49.058;8.524;2024-03-02T12:36:41;16.90;89.10
12223;DHT22;6174;49.058;8.524;2024-03-02T12:39:26;16.80;88.90
12223;DHT22;6174;49.058;8.524;2024-03-02T12:42:16;16.80;89.00
12223;DHT22;6174;49.058;8.524;2024-03-02T12:44:53;16.80;91.30
12223;DHT22;6174;49.058;8.524;2024-03-02T12:47:35;16.80;90.70
12223;DHT22;6174;49.058;8.524;2024-03-02T12:50:19;17.00;90.40
12223;DHT22;6174;49.058;8.524;2024-03-02T12:52:55;17.40;90.80
12223;DHT22;6174;49.058;8.524;2024-03-02T12:55:38;17.60;88.80
12223;DHT22;6174;49.058;8.524;2024-03-02T12:58:42;17.60;87.70
12223;DHT22;6174;49.058;8.524;2024-03-02T13:01:56;17.60;85.40
12223;DHT22;6174;49.058;8.524;2024-03-02T13:04:40;17.70;85.70
12223;DHT22;6174;49.058;8.524;2024-03-02T13:07:44;17.90;87.50
12223;DHT22;6174;49.058;8.524;2024-03-02T13:10:46;18.20;87.20
12223;DHT22;6174;49.058;8.524;2024-03-02T13:19:54;18.60;83.50
12223;DHT22;6174;49.058;8.524;2024-03-02T13:22:21;19.50;80.90
12223;DHT22;6174;49.058;8.524;2024-03-02T13:24:50;20.50;80.00
12223;DHT22;6174;49.058;8.524;2024-03-02T13:27:17;20.00;74.00
12223;DHT22;6174;49.058;8.524;2024-03-02T13:29:46;20.90;74.20
12223;DHT22;6174;49.058;8.524;2024-03-02T13:32:13;21.80;71.50
12223;DHT22;6174;49.058;8.524;2024-03-02T13:34:41;22.70;66.30
12223;DHT22;6174;49.058;8.524;2024-03-02T13:37:07;22.70;65.90
12223;DHT22;6174;49.058;8.524;2024-03-02T13:39:34;22.20;67.20
12223;DHT22;6174;49.058;8.524;2024-03-02T13:42:07;21.90;67.50
12223;DHT22;6174;49.058;8.524;2024-03-02T13:44:35;21.50;69.00
12223;DHT22;6174;49.058;8.524;2024-03-02T13:47:02;21.20;70.10
12223;DHT22;6174;49.058;8.524;2024-03-02T13:49:29;21.10;68.40
12223;DHT22;6174;49.058;8.524;2024-03-02T13:51:59;21.00;68.50
12223;DHT22;6174;49.058;8.524;2024-03-02T13:54:28;21.80;67.00
12223;DHT22;6174;49.058;8.524;2024-03-02T13:56:55;21.60;69.90
12223;DHT22;6174;49.058;8.524;2024-03-02T13:59:25;21.20;69.80
12223;DHT22;6174;49.058;8.524;2024-03-02T14:01:52;21.30;69.30
12223;DHT22;6174;49.058;8.524;2024-03-02T14:04:19;21.00;68.60
12223;DHT22;6174;49.058;8.524;2024-03-02T14:06:46;19.80;74.10
12223;DHT22;6174;49.058;8.524;2024-03-02T14:09:13;19.70;71.40
12223;DHT22;6174;49.058;8.524;2024-03-02T14:11:40;19.50;71.80
12223;DHT22;6174;49.058;8.524;2024-03-02T14:14:07;19.20;74.10
12223;DHT22;6174;49.058;8.524;2024-03-02T14:16:35;18.50;74.50
12223;DHT22;6174;49.058;8.524;2024-03-02T14:19:02;18.60;75.60
12223;DHT22;6174;49.058;8.524;2024-03-02T14:21:30;19.30;74.60
12223;DHT22;6174;49.058;8.524;2024-03-02T14:23:57;19.40;73.80
12223;DHT22;6174;49.058;8.524;2024-03-02T14:26:23;19.20;74.30
12223;DHT22;6174;49.058;8.524;2024-03-02T14:28:50;19.30;73.60
12223;DHT22;6174;49.058;8.524;2024-03-02T14:31:17;19.20;73.10
12223;DHT22;6174;49.058;8.524;2024-03-02T14:33:46;18.40;74.80
12223;DHT22;6174;49.058;8.524;2024-03-02T14:36:13;18.80;74.70
12223;DHT22;6174;49.058;8.524;2024-03-02T14:38:40;18.80;75.00
12223;DHT22;6174;49.058;8.524;2024-03-02T14:41:07;18.50;75.60
12223;DHT22;6174;49.058;8.524;2024-03-02T14:43:33;18.30;76.60
12223;DHT22;6174;49.058;8.524;2024-03-02T14:46:00;17.30;78.90
12223;DHT22;6174;49.058;8.524;2024-03-02T14:48:27;16.80;80.90
12223;DHT22;6174;49.058;8.524;2024-03-02T14:50:55;16.80;80.60
12223;DHT22;6174;49.058;8.524;2024-03-02T14:53:22;16.40;82.50
12223;DHT22;6174;49.058;8.524;2024-03-02T14:55:49;16.50;82.70
12223;DHT22;6174;49.058;8.524;2024-03-02T14:58:15;16.20;84.10
12223;DHT22;6174;49.058;8.524;2024-03-02T15:00:42;16.30;83.50
12223;DHT22;6174;49.058;8.524;2024-03-02T15:03:09;16.20;84.60
12223;DHT22;6174;49.058;8.524;2024-03-02T15:05:37;16.10;83.30
12223;DHT22;6174;49.058;8.524;2024-03-02T15:08:06;16.20;83.30
12223;DHT22;6174;49.058;8.524;2024-03-02T15:10:33;16.00;83.70
12223;DHT22;6174;49.058;8.524;2024-03-02T15:12:59;15.80;84.00
12223;DHT22;6174;49.058;8.524;2024-03-02T15:15:26;15.60;84.70
12223;DHT22;6174;49.058;8.524;2024-03-02T15:17:53;15.60;85.50
12223;DHT22;6174;49.058;8.524;2024-03-02T15:20:20;15.70;85.80
12223;DHT22;6174;49.058;8.524;2024-03-02T15:22:47;15.80;85.40
12223;DHT22;6174;49.058;8.524;2024-03-02T15:25:15;15.90;84.60
12223;DHT22;6174;49.058;8.524;2024-03-02T15:27:42;15.90;84.80
12223;DHT22;6174;49.058;8.524;2024-03-02T15:30:09;15.70;85.80
12223;DHT22;6174;49.058;8.524;2024-03-02T15:32:36;15.80;85.70
12223;DHT22;6174;49.058;8.524;2024-03-02T15:35:04;15.80;85.20
12223;DHT22;6174;49.058;8.524;2024-03-02T15:37:31;15.70;83.70
12223;DHT22;6174;49.058;8.524;2024-03-02T15:39:58;15.70;84.70
12223;DHT22;6174;49.058;8.524;2024-03-02T15:42:32;15.70;84.90
12223;DHT22;6174;49.058;8.524;2024-03-02T15:44:59;15.70;85.10
12223;DHT22;6174;49.058;8.524;2024-03-02T15:47:26;15.70;85.40
12223;DHT22;6174;49.058;8.524;2024-03-02T15:49:53;15.70;84.90
12223;DHT22;6174;49.058;8.524;2024-03-02T15:52:19;15.60;85.30
12223;DHT22;6174;49.058;8.524;2024-03-02T15:54:47;15.60;86.40
12223;DHT22;6174;49.058;8.524;2024-03-02T15:57:14;15.60;86.50
12223;DHT22;6174;49.058;8.524;2024-03-02T15:59:43;15.60;86.50
12223;DHT22;6174;49.058;8.524;2024-03-02T16:02:09;15.60;86.80
12223;DHT22;6174;49.058;8.524;2024-03-02T16:04:36;15.60;86.20
12223;DHT22;6174;49.058;8.524;2024-03-02T16:07:03;15.50;87.00
12223;DHT22;6174;49.058;8.524;2024-03-02T16:09:30;15.50;87.50
12223;DHT22;6174;49.058;8.524;2024-03-02T16:11:56;15.40;87.90
12223;DHT22;6174;49.058;8.524;2024-03-02T16:14:23;15.20;89.60
12223;DHT22;6174;49.058;8.524;2024-03-02T16:16:51;15.10;90.60
12223;DHT22;6174;49.058;8.524;2024-03-02T16:19:18;15.10;90.60
12223;DHT22;6174;49.058;8.524;2024-03-02T16:21:45;15.00;90.50
12223;DHT22;6174;49.058;8.524;2024-03-02T16:24:11;15.00;91.00
12223;DHT22;6174;49.058;8.524;2024-03-02T16:26:38;14.80;91.80
12223;DHT22;6174;49.058;8.524;2024-03-02T16:29:05;14.80;91.50
12223;DHT22;6174;49.058;8.524;2024-03-02T16:31:31;14.80;91.30
12223;DHT22;6174;49.058;8.524;2024-03-02T16:34:01;14.70;91.20
12223;DHT22;6174;49.058;8.524;2024-03-02T16:36:28;14.60;91.70
12223;DHT22;6174;49.058;8.524;2024-03-02T16:38:58;14.50;92.50
12223;DHT22;6174;49.058;8.524;2024-03-02T16:41:24;14.50;92.90
12223;DHT22;6174;49.058;8.524;2024-03-02T16:43:55;14.50;93.10
12223;DHT22;6174;49.058;8.524;2024-03-02T16:46:21;14.50;92.80
12223;DHT22;6174;49.058;8.524;2024-03-02T16:48:48;14.50;93.10
12223;DHT22;6174;49.058;8.524;2024-03-02T16:51:16;14.50;93.20
12223;DHT22;6174;49.058;8.524;2024-03-02T16:53:43;14.40;93.30
12223;DHT22;6174;49.058;8.524;2024-03-02T16:56:10;14.40;93.20
12223;DHT22;6174;49.058;8.524;2024-03-02T16:58:37;14.40;93.10
12223;DHT22;6174;49.058;8.524;2024-03-02T17:01:04;14.30;93.20
12223;DHT22;6174;49.058;8.524;2024-03-02T17:03:30;14.20;93.00
12223;DHT22;6174;49.058;8.524;2024-03-02T17:05:57;14.20;93.30
12223;DHT22;6174;49.058;8.524;2024-03-02T17:08:25;14.10;93.30
12223;DHT22;6174;49.058;8.524;2024-03-02T17:10:52;14.00;93.30
12223;DHT22;6174;49.058;8.524;2024-03-02T17:13:19;14.00;93.30
12223;DHT22;6174;49.058;8.524;2024-03-02T17:15:45;14.10;93.20
12223;DHT22;6174;49.058;8.524;2024-03-02T17:18:12;14.00;93.20
12223;DHT22;6174;49.058;8.524;2024-03-02T17:20:39;14.00;93.30
12223;DHT22;6174;49.058;8.524;2024-03-02T17:23:05;13.90;93.60
12223;DHT22;6174;49.058;8.524;2024-03-02T17:25:34;13.80;93.30
12223;DHT22;6174;49.058;8.524;2024-03-02T17:28:20;13.80;93.20
12223;DHT22;6174;49.058;8.524;2024-03-02T17:30:48;13.80;93.30
12223;DHT22;6174;49.058;8.524;2024-03-02T17:33:14;13.90;93.20
12223;DHT22;6174;49.058;8.524;2024-03-02T17:35:41;13.80;93.30
12223;DHT22;6174;49.058;8.524;2024-03-02T17:38:17;13.60;91.80
12223;DHT22;6174;49.058;8.524;2024-03-02T17:40:48;13.60;91.80
12223;DHT22;6174;49.058;8.524;2024-03-02T17:43:16;13.60;91.30
12223;DHT22;6174;49.058;8.524;2024-03-02T17:45:43;13.60;91.20
12223;DHT22;6174;49.058;8.524;2024-03-02T17:48:10;13.70;91.40
12223;DHT22;6174;49.058;8.524;2024-03-02T17:50:38;13.60;92.30
12223;DHT22;6174;49.058;8.524;2024-03-02T17:53:05;13.70;92.80
12223;DHT22;6174;49.058;8.524;2024-03-02T17:55:33;13.80;92.60
12223;DHT22;6174;49.058;8.524;2024-03-02T17:58:02;14.00;92.30
12223;DHT22;6174;49.058;8.524;2024-03-02T18:00:29;13.70;92.30
12223;DHT22;6174;49.058;8.524;2024-03-02T18:02:56;13.80;92.20
12223;DHT22;6174;49.058;8.524;2024-03-02T18:05:24;13.70;92.30
12223;DHT22;6174;49.058;8.524;2024-03-02T18:07:51;13.70;92.10
12223;DHT22;6174;49.058;8.524;2024-03-02T18:10:21;13.50;92.20
12223;DHT22;6174;49.058;8.524;2024-03-02T18:12:49;13.60;92.40
12223;DHT22;6174;49.058;8.524;2024-03-02T18:15:18;13.50;92.80
12223;DHT22;6174;49.058;8.524;2024-03-02T18:17:47;13.40;93.10
12223;DHT22;6174;49.058;8.524;2024-03-02T18:20:14;13.40;93.30
12223;DHT22;6174;49.058;8.524;2024-03-02T18:22:41;13.50;93.10
12223;DHT22;6174;49.058;8.524;2024-03-02T18:25:08;13.30;93.80
12223;DHT22;6174;49.058;8.524;2024-03-02T18:27:35;13.30;93.40
12223;DHT22;6174;49.058;8.524;2024-03-02T18:30:20;13.20;93.70
12223;DHT22;6174;49.058;8.524;2024-03-02T18:32:51;13.30;93.20
12223;DHT22;6174;49.058;8.524;2024-03-02T18:35:18;13.20;93.70
12223;DHT22;6174;49.058;8.524;2024-03-02T18:37:45;13.10;93.80
12223;DHT22;6174;49.058;8.524;2024-03-02T18:40:12;13.20;92.90
12223;DHT22;6174;49.058;8.524;2024-03-02T18:42:39;13.20;92.80
12223;DHT22;6174;49.058;8.524;2024-03-02T18:45:07;13.20;93.00
12223;DHT22;6174;49.058;8.524;2024-03-02T18:47:34;13.20;92.80
12223;DHT22;6174;49.058;8.524;2024-03-02T18:50:05;13.00;92.80
12223;DHT22;6174;49.058;8.524;2024-03-02T18:52:34;13.00;93.00
12223;DHT22;6174;49.058;8.524;2024-03-02T18:55:02;13.10;93.10
12223;DHT22;6174;49.058;8.524;2024-03-02T18:57:29;13.20;93.10
12223;DHT22;6174;49.058;8.524;2024-03-02T18:59:56;13.20;92.90
12223;DHT22;6174;49.058;8.524;2024-03-02T19:02:23;13.10;93.40
12223;DHT22;6174;49.058;8.524;2024-03-02T19:04:50;13.00;93.40
12223;DHT22;6174;49.058;8.524;2024-03-02T19:07:19;13.10;93.40
12223;DHT22;6174;49.058;8.524;2024-03-02T19:09:46;13.10;93.20
12223;DHT22;6174;49.058;8.524;2024-03-02T19:12:16;13.00;93.50
12223;DHT22;6174;49.058;8.524;2024-03-02T19:14:43;12.80;93.70
12223;DHT22;6174;49.058;8.524;2024-03-02T19:17:11;12.70;94.10
12223;DHT22;6174;49.058;8.524;2024-03-02T19:19:38;12.90;93.90
12223;DHT22;6174;49.058;8.524;2024-03-02T19:22:06;12.90;93.90
12223;DHT22;6174;49.058;8.524;2024-03-02T19:24:36;12.90;93.70
12223;DHT22;6174;49.058;8.524;2024-03-02T19:27:04;13.00;93.60
12223;DHT22;6174;49.058;8.524;2024-03-02T19:29:31;13.00;93.90
12223;DHT22;6174;49.058;8.524;2024-03-02T19:31:58;13.00;94.00
12223;DHT22;6174;49.058;8.524;2024-03-02T19:34:25;13.10;94.10
12223;DHT22;6174;49.058;8.524;2024-03-02T19:36:52;13.20;94.20
12223;DHT22;6174;49.058;8.524;2024-03-02T19:39:20;13.20;94.40
12223;DHT22;6174;49.058;8.524;2024-03-02T19:41:53;13.10;94.70
12223;DHT22;6174;49.058;8.524;2024-03-02T19:44:22;13.10;94.80
12223;DHT22;6174;49.058;8.524;2024-03-02T19:46:51;13.10;95.20
12223;DHT22;6174;49.058;8.524;2024-03-02T19:49:18;13.30;95.40
12223;DHT22;6174;49.058;8.524;2024-03-02T19:51:46;13.20;95.40
12223;DHT22;6174;49.058;8.524;2024-03-02T19:54:13;13.10;95.60
12223;DHT22;6174;49.058;8.524;2024-03-02T19:56:40;13.10;95.90
12223;DHT22;6174;49.058;8.524;2024-03-02T19:59:08;13.00;96.30
12223;DHT22;6174;49.058;8.524;2024-03-02T20:01:37;13.30;96.40
12223;DHT22;6174;49.058;8.524;2024-03-02T20:04:06;13.00;96.40
12223;DHT22;6174;49.058;8.524;2024-03-02T20:06:34;13.00;96.40
12223;DHT22;6174;49.058;8.524;2024-03-02T20:09:01;13.40;96.70
12223;DHT22;6174;49.058;8.524;2024-03-02T20:11:30;12.90;96.70
12223;DHT22;6174;49.058;8.524;2024-03-02T20:13:59;12.90;96.80
12223;DHT22;6174;49.058;8.524;2024-03-02T20:16:29;12.70;97.10
12223;DHT22;6174;49.058;8.524;2024-03-02T20:18:56;12.90;97.30
12223;DHT22;6174;49.058;8.524;2024-03-02T20:21:23;12.70;97.60
12223;DHT22;6174;49.058;8.524;2024-03-02T20:23:50;12.80;97.60
12223;DHT22;6174;49.058;8.524;2024-03-02T20:26:17;12.70;97.90
12223;DHT22;6174;49.058;8.524;2024-03-02T20:28:46;12.70;98.00
12223;DHT22;6174;49.058;8.524;2024-03-02T20:31:13;12.70;98.20
12223;DHT22;6174;49.058;8.524;2024-03-02T20:33:41;12.70;98.30
12223;DHT22;6174;49.058;8.524;2024-03-02T20:36:11;12.70;98.60
12223;DHT22;6174;49.058;8.524;2024-03-02T20:38:39;12.70;98.80
12223;DHT22;6174;49.058;8.524;2024-03-02T20:41:13;12.70;98.90
12223;DHT22;6174;49.058;8.524;2024-03-02T20:43:40;12.70;99.00
12223;DHT22;6174;49.058;8.524;2024-03-02T20:46:07;12.60;99.40
12223;DHT22;6174;49.058;8.524;2024-03-02T20:48:34;12.60;99.50
12223;DHT22;6174;49.058;8.524;2024-03-02T20:51:02;12.50;99.60
12223;DHT22;6174;49.058;8.524;2024-03-02T20:53:29;12.50;99.80
12223;DHT22;6174;49.058;8.524;2024-03-02T20:55:56;12.80;99.80
12223;DHT22;6174;49.058;8.524;2024-03-02T20:58:24;12.60;99.50
12223;DHT22;6174;49.058;8.524;2024-03-02T21:00:51;12.70;99.60
12223;DHT22;6174;49.058;8.524;2024-03-02T21:03:18;12.60;99.70
12223;DHT22;6174;49.058;8.524;2024-03-02T21:05:46;12.60;99.60
12223;DHT22;6174;49.058;8.524;2024-03-02T21:08:14;12.50;99.80
12223;DHT22;6174;49.058;8.524;2024-03-02T21:10:42;12.50;99.90
12223;DHT22;6174;49.058;8.524;2024-03-02T21:13:09;12.40;99.90
12223;DHT22;6174;49.058;8.524;2024-03-02T21:15:38;12.40;99.90
12223;DHT22;6174;49.058;8.524;2024-03-02T21:18:05;12.40;99.90
12223;DHT22;6174;49.058;8.524;2024-03-02T21:20:32;12.40;99.90
12223;DHT22;6174;49.058;8.524;2024-03-02T21:23:01;12.40;99.90
12223;DHT22;6174;49.058;8.524;2024-03-02T21:25:29;12.30;99.90
12223;DHT22;6174;49.058;8.524;2024-03-02T21:27:59;12.20;99.90
12223;DHT22;6174;49.058;8.524;2024-03-02T21:30:26;12.40;99.90
12223;DHT22;6174;49.058;8.524;2024-03-02T21:32:56;12.30;99.90
12223;DHT22;6174;49.058;8.524;2024-03-02T21:35:23;12.20;99.90
12223;DHT22;6174;49.058;8.524;2024-03-02T21:37:53;12.20;99.90
12223;DHT22;6174;49.058;8.524;2024-03-02T21:40:20;12.20;99.90
12223;DHT22;6174;49.058;8.524;2024-03-02T21:42:48;12.40;99.90
12223;DHT22;6174;49.058;8.524;2024-03-02T21:45:16;12.30;99.90
12223;DHT22;6174;49.058;8.524;2024-03-02T21:47:43;12.20;99.90
12223;DHT22;6174;49.058;8.524;2024-03-02T21:50:10;12.20;99.90
12223;DHT22;6174;49.058;8.524;2024-03-02T21:52:37;12.00;99.90
12223;DHT22;6174;49.058;8.524;2024-03-02T21:55:05;11.90;99.90
12223;DHT22;6174;49.058;8.524;2024-03-02T21:57:34;11.90;99.90
12223;DHT22;6174;49.058;8.524;2024-03-02T22:00:02;12.00;99.90
12223;DHT22;6174;49.058;8.524;2024-03-02T22:02:31;12.00;99.90
12223;DHT22;6174;49.058;8.524;2024-03-02T22:04:58;12.00;99.90
12223;DHT22;6174;49.058;8.524;2024-03-02T22:07:28;12.10;99.90
12223;DHT22;6174;49.058;8.524;2024-03-02T22:09:55;12.30;99.90
12223;DHT22;6174;49.058;8.524;2024-03-02T22:12:22;12.20;99.90
12223;DHT22;6174;49.058;8.524;2024-03-02T22:14:49;12.20;99.90
12223;DHT22;6174;49.058;8.524;2024-03-02T22:17:17;12.20;99.90
12223;DHT22;6174;49.058;8.524;2024-03-02T22:19:44;12.40;99.90
12223;DHT22;6174;49.058;8.524;2024-03-02T22:22:13;11.90;99.90
12223;DHT22;6174;49.058;8.524;2024-03-02T22:24:40;11.90;99.90
12223;DHT22;6174;49.058;8.524;2024-03-02T22:27:08;12.00;99.90
12223;DHT22;6174;49.058;8.524;2024-03-02T22:29:35;12.00;99.90
12223;DHT22;6174;49.058;8.524;2024-03-02T22:32:02;12.10;99.90
12223;DHT22;6174;49.058;8.524;2024-03-02T22:34:30;12.00;99.90
12223;DHT22;6174;49.058;8.524;2024-03-02T22:36:57;12.30;99.90
12223;DHT22;6174;49.058;8.524;2024-03-02T22:39:25;11.60;99.90
12223;DHT22;6174;49.058;8.524;2024-03-02T22:41:52;11.70;99.90
12223;DHT22;6174;49.058;8.524;2024-03-02T22:44:20;11.90;99.90
12223;DHT22;6174;49.058;8.524;2024-03-02T22:46:47;12.00;99.90
12223;DHT22;6174;49.058;8.524;2024-03-02T22:49:15;12.20;99.90
12223;DHT22;6174;49.058;8.524;2024-03-02T22:51:43;12.40;99.90
12223;DHT22;6174;49.058;8.524;2024-03-02T22:54:10;12.40;99.90
12223;DHT22;6174;49.058;8.524;2024-03-02T22:56:37;11.90;99.90
12223;DHT22;6174;49.058;8.524;2024-03-02T22:59:04;12.00;99.90
12223;DHT22;6174;49.058;8.524;2024-03-02T23:01:31;12.00;99.90
12223;DHT22;6174;49.058;8.524;2024-03-02T23:03:58;12.00;99.90
12223;DHT22;6174;49.058;8.524;2024-03-02T23:06:25;11.90;99.90
12223;DHT22;6174;49.058;8.524;2024-03-02T23:08:53;12.30;99.90
12223;DHT22;6174;49.058;8.524;2024-03-02T23:11:20;11.90;99.90
12223;DHT22;6174;49.058;8.524;2024-03-02T23:13:47;11.80;99.90
12223;DHT22;6174;49.058;8.524;2024-03-02T23:16:14;12.20;99.90
12223;DHT22;6174;49.058;8.524;2024-03-02T23:18:41;12.00;99.90
12223;DHT22;6174;49.058;8.524;2024-03-02T23:21:08;11.60;99.90
12223;DHT22;6174;49.058;8.524;2024-03-02T23:23:35;11.50;99.90
12223;DHT22;6174;49.058;8.524;2024-03-02T23:26:04;11.60;99.90
12223;DHT22;6174;49.058;8.524;2024-03-02T23:28:33;11.60;99.90
